• Join FlightAware (Why Join?)
  • Login
  • US Flag 
10:47PM EDT


 

Airport Tracker/Info


-or-


 

Live Flight TrackerFlight Track Log ✈ VH-SVH ✈ 18-Apr-2013 ✈ YGLB / GUL - YGLB / GUL

Flight Track Log - Related Links

Times and Time Zones

All times are in EDT time to prevent confusion due to time zone crossing. See the VH-SVH flight status page for this flight to view local times or setup timezone preferences in your user account.

Time Position Orientation Groundspeed Altitude Reporting Facility
EDT Latitude Longitude Course Direction KTS MPH feet Rate Location/Type
01:48AM -35.0008 149.4032 172° South 105 121 4,400  Level Aus ATC (RADAR)
01:49AM -35.0182 149.4060 172° South 107 123 4,300  Descending Aus ATC (RADAR)
01:50AM -35.0473 149.4095 174° South 104 120 4,400  Climbing Aus ATC (RADAR)
01:51AM -35.0706 149.4120 175° South 110 127 4,400  Level Aus ATC (RADAR)
01:51AM -35.0935 149.4145 175° South 111 128 4,400  Level Aus ATC (RADAR)
01:52AM -35.1138 149.4173 173° South 111 128 4,400  Level Aus ATC (RADAR)
01:53AM -35.1424 149.4181 179° South 113 130 4,400  Level Aus ATC (RADAR)
01:54AM -35.1599 149.4193 177° South 109 125 4,400  Level Aus ATC (RADAR)
01:55AM -35.1783 149.4002 220° Southwest 97 112 4,400  Level Aus ATC (RADAR)
01:56AM -35.1943 149.3694 238° Southwest 99 114 4,400  Level Aus ATC (RADAR)
01:56AM -35.2038 149.3537 233° Southwest 98 113 4,400  Level Aus ATC (RADAR)
01:56AM -35.2081 149.3468 233° Southwest 99 114 4,400  Level Aus ATC (RADAR)
01:57AM -35.2165 149.3317 236° Southwest 94 108 4,400  Level Aus ATC (RADAR)
01:58AM -35.2324 149.3038 235° Southwest 98 113 4,400 -180 Level Aus ATC (RADAR)
01:59AM -35.2420 149.2871 235° Southwest 102 117 4,200 -420 Descending Aus ATC (RADAR)
02:00AM -35.2639 149.2707 211° Southwest 109 125 3,800 -480 Descending Aus ATC (RADAR)
02:00AM -35.2805 149.2602 207° Southwest 116 133 3,500 -420 Descending Aus ATC (RADAR)
02:02AM -35.3120 149.2323 216° Southwest 77 89 3,000 -360 Descending Aus ATC (RADAR)
02:02AM -35.3174 149.2271 218° Southwest 74 85 2,900 -660 Descending Aus ATC (RADAR)
02:03AM -35.3199 149.2144 257° West 70 81 2,400 -720 Descending Aus ATC (RADAR)
02:04AM -35.3064 149.1933 308° West 71 82 1,700 -60 Descending Aus ATC (RADAR)
02:04AM -35.2971 149.1811 313° West 77 89 2,300 660 Climbing Aus ATC (RADAR)
02:05AM -35.2938 149.2068 81° East 90 104 2,800 480 Climbing Aus ATC (RADAR)
02:07AM -35.3076 149.2502 111° Southeast 96 110 3,600 480 Climbing Aus ATC (RADAR)
02:07AM -35.3113 149.2610 112° Southeast 100 115 3,700 540 Climbing Aus ATC (RADAR)
02:08AM -35.3177 149.2796 113° Southeast 101 116 4,100 480 Climbing Aus ATC (RADAR)
02:09AM -35.3289 149.3162 111° Southeast 109 125 4,500 180 Climbing Aus ATC (RADAR)
02:09AM -35.3376 149.3404 114° Southeast 114 131 4,500  Level Aus ATC (RADAR)
02:10AM -35.3476 149.3676 114° Southeast 114 131 4,500 -60 Level Aus ATC (RADAR)
02:11AM -35.3656 149.4155 115° Southeast 113 130 4,400 -120 Descending Aus ATC (RADAR)
02:12AM -35.3690 149.4244 115° Southeast 114 131 4,400  Level Aus ATC (RADAR)
02:17AM -35.3986 149.6008 104° East 3,500 -180 Descending Aus ATC (Calculated)
02:18AM -35.4115 149.6631 284° West 3,500  Level Aus ATC (Calculated)
02:19AM -35.4055 149.6339 104° East  Level FlightAware Approximate
02:20AM -35.4173 149.6911 104° East  Level FlightAware Approximate
02:21AM -35.4225 149.7165 104° East  Level FlightAware Approximate
02:22AM -35.4278 149.7419 104° East  Level FlightAware Approximate
02:23AM -35.4330 149.7674 104° East  Level FlightAware Approximate
02:23AM -35.3363 149.6711 128° Southeast  Level Aus ATC (Calculated)
02:25AM -35.3567 149.7031 128° Southeast  Level FlightAware Approximate
02:26AM -35.3699 149.7238 128° Southeast  Level FlightAware Approximate
02:27AM -35.3830 149.7445 128° Southeast  Level FlightAware Approximate
02:28AM -35.3962 149.7652 128° Southeast  Level FlightAware Approximate
02:29AM -35.4093 149.7859 128° Southeast  Level FlightAware Approximate
02:30AM -35.4225 149.8066 128° Southeast  Level FlightAware Approximate
02:31AM -35.4356 149.8273 128° Southeast  Level FlightAware Approximate
02:32AM -35.4487 149.8480 128° Southeast  Level FlightAware Approximate
02:33AM -35.4619 149.8687 128° Southeast  Level FlightAware Approximate
02:34AM -35.4487 149.8480 308° West  Level FlightAware Approximate
02:35AM -35.4435 149.8487 351° North  Level FlightAware Approximate
02:36AM -35.4224 149.8446 351° North  Level FlightAware Approximate
02:37AM -35.4013 149.8405 351° North  Level FlightAware Approximate
02:38AM -35.3801 149.8364 351° North  Level FlightAware Approximate
02:39AM -35.3590 149.8323 351° North  Level FlightAware Approximate
02:40AM -35.3379 149.8282 351° North  Level FlightAware Approximate
02:41AM -35.3167 149.8241 351° North  Level FlightAware Approximate
02:42AM -35.2956 149.8200 351° North  Level FlightAware Approximate
02:43AM -35.2745 149.8159 351° North  Level FlightAware Approximate
02:44AM -35.2533 149.8118 351° North  Level FlightAware Approximate
02:45AM -35.2322 149.8078 351° North  Level FlightAware Approximate
02:46AM -35.2111 149.8037 351° North  Level FlightAware Approximate
02:47AM -35.1900 149.7996 351° North  Level FlightAware Approximate
02:48AM -35.1688 149.7955 351° North  Level FlightAware Approximate
02:49AM -35.1477 149.7914 351° North  Level FlightAware Approximate
02:50AM -35.1266 149.7873 351° North  Level FlightAware Approximate
02:51AM -35.1054 149.7832 351° North  Level FlightAware Approximate
02:52AM -35.0843 149.7792 351° North  Level FlightAware Approximate
02:53AM -35.0632 149.7751 351° North  Level FlightAware Approximate
02:54AM -35.0420 149.7710 351° North  Level FlightAware Approximate
02:55AM -35.0209 149.7670 351° North  Level FlightAware Approximate
02:56AM -34.9998 149.7629 351° North  Level FlightAware Approximate
02:57AM -34.9787 149.7588 351° North  Level FlightAware Approximate
02:58AM -34.9575 149.7548 351° North  Level FlightAware Approximate
02:59AM -34.9364 149.7507 351° North  Level FlightAware Approximate
03:00AM -34.9153 149.7466 351° North  Level FlightAware Approximate
03:01AM -34.8941 149.7426 351° North  Level FlightAware Approximate
03:02AM -34.8730 149.7385 351° North  Level FlightAware Approximate